Time;durP1;ratioP1;P1;durP2;ratioP2;P2;SDS_P1;SDS_P2;PMS_P1;PMS_P2;Temp;Humidity;BMP_temperature;BMP_pressure;BME280_temperature;BME280_humidity;BME280_pressure;Samples;Min_cycle;Max_cycle;Signal;HPM_P1;HPM_P2
2022/03/17 00:02:23;;;;;;;8.52;3.50;;;;;;;2.84;69.07;101623.69;18429921;32;20445;-64
2022/03/17 00:12:26;;;;;;;3.55;3.22;;;;;;;2.89;67.92;101647.13;18430060;32;20146;-64
2022/03/17 00:22:32;;;;;;;5.93;2.33;;;;;;;2.55;70.19;101636.03;18429176;32;20506;-64
2022/03/17 00:32:36;;;;;;;6.28;3.85;;;;;;;2.77;71.55;101643.16;18434802;32;20454;-64
2022/03/17 00:42:40;;;;;;;4.10;2.25;;;;;;;3.61;70.62;101612.69;18436772;32;20118;-64
2022/03/17 00:52:43;;;;;;;2.37;1.40;;;;;;;4.23;68.70;101602.50;18436601;32;20123;-64
2022/03/17 01:02:50;;;;;;;4.43;2.20;;;;;;;4.27;67.19;101609.59;18436270;32;20150;-64
2022/03/17 01:12:54;;;;;;;4.32;1.98;;;;;;;4.71;65.14;101611.38;18436324;32;20089;-64
2022/03/17 01:22:58;;;;;;;3.22;2.30;;;;;;;4.71;64.82;101616.56;18435684;32;20401;-64
2022/03/17 01:33:01;;;;;;;2.12;1.75;;;;;;;4.39;65.06;101619.53;18435715;32;20129;-64
2022/03/17 01:43:06;;;;;;;3.90;2.60;;;;;;;3.96;65.56;101638.34;18433956;32;20089;-64
2022/03/17 01:53:09;;;;;;;5.30;3.78;;;;;;;3.57;65.25;101645.25;18434834;32;20109;-64
2022/03/17 02:03:14;;;;;;;3.87;2.42;;;;;;;3.17;66.42;101654.56;18434366;32;20694;-64
2022/03/17 02:13:17;;;;;;;3.17;2.67;;;;;;;2.76;67.69;101662.00;18434089;32;20111;-64
2022/03/17 02:33:43;;;;;;;4.28;2.05;;;;;;;2.32;68.02;101674.41;18433690;32;20134;-64
2022/03/17 02:43:47;;;;;;;2.87;1.85;;;;;;;2.16;68.35;101684.72;18427325;32;189621;-64
2022/03/17 02:53:50;;;;;;;4.07;2.37;;;;;;;2.41;67.53;101692.03;18433092;32;20479;-64
2022/03/17 03:03:55;;;;;;;5.47;3.05;;;;;;;2.38;68.80;101696.16;18432542;32;20390;-64
2022/03/17 03:13:58;;;;;;;2.25;2.05;;;;;;;2.01;68.49;101714.00;18432481;32;20111;-64
2022/03/17 03:24:03;;;;;;;4.45;3.15;;;;;;;1.96;68.42;101725.75;18432954;32;20388;-63
2022/03/17 03:34:08;;;;;;;2.35;2.15;;;;;;;2.00;68.68;101756.03;18432011;32;20096;-64
2022/03/17 03:44:14;;;;;;;2.55;1.85;;;;;;;2.14;67.69;101758.47;18432581;32;20093;-64
2022/03/17 03:54:17;;;;;;;3.30;2.17;;;;;;;1.92;68.68;101759.88;18431012;32;20093;-64
2022/03/17 04:04:23;;;;;;;4.43;3.17;;;;;;;2.13;67.33;101778.16;18430530;32;20167;-64
2022/03/17 04:14:27;;;;;;;5.15;3.12;;;;;;;2.24;66.82;101771.03;18430262;32;20115;-64
2022/03/17 04:24:31;;;;;;;5.93;2.42;;;;;;;2.06;68.55;101776.09;18429620;32;20448;-64
2022/03/17 04:34:35;;;;;;;1.90;1.70;;;;;;;2.00;67.32;101758.59;18428886;32;20206;-63
2022/03/17 04:44:39;;;;;;;2.30;2.05;;;;;;;2.03;68.04;101758.75;18428347;32;20129;-64
2022/03/17 04:54:42;;;;;;;8.45;6.65;;;;;;;1.79;67.62;101764.31;18427510;32;20136;-63
2022/03/17 05:04:47;;;;;;;4.12;2.72;;;;;;;1.62;67.27;101796.84;18426338;32;20101;-64
2022/03/17 05:14:50;;;;;;;3.37;2.80;;;;;;;1.44;67.61;101796.69;18428905;32;20378;-64
2022/03/17 05:24:55;;;;;;;7.50;3.12;;;;;;;1.53;67.30;101816.91;18398422;32;20093;-64
2022/03/17 05:34:58;;;;;;;4.15;2.15;;;;;;;1.62;67.44;101832.03;18394818;32;20113;-64
2022/03/17 05:45:02;;;;;;;4.28;3.87;;;;;;;1.92;66.42;101835.44;18398264;32;20097;-64
2022/03/17 05:55:07;;;;;;;5.68;3.78;;;;;;;2.34;65.47;101853.19;18408353;32;20093;-64
2022/03/17 06:05:13;;;;;;;5.50;2.62;;;;;;;3.61;62.90;101868.34;18370856;32;20089;-64
2022/03/17 06:15:16;;;;;;;7.22;3.42;;;;;;;5.49;60.04;101873.44;18368592;32;20116;-64
2022/03/17 06:25:22;;;;;;;9.82;5.18;;;;;;;8.21;52.84;101874.72;18369582;32;20437;-64
2022/03/17 06:35:27;;;;;;;12.50;5.22;;;;;;;11.38;45.12;101877.31;18432559;32;20346;-65
2022/03/17 06:45:32;;;;;;;14.70;6.72;;;;;;;14.82;38.94;101879.41;18432762;32;20434;-65
2022/03/17 06:55:35;;;;;;;17.55;7.35;;;;;;;17.30;32.74;101892.28;18405556;32;20116;-65
2022/03/17 07:05:40;;;;;;;14.40;8.15;;;;;;;19.25;29.73;101889.44;18367874;32;20097;-66
2022/03/17 07:15:43;;;;;;;16.33;7.62;;;;;;;16.03;33.62;101926.13;18418004;32;20125;-65
2022/03/17 07:25:47;;;;;;;15.90;7.45;;;;;;;16.42;32.97;101931.34;18431987;32;20459;-65
2022/03/17 07:35:51;;;;;;;13.65;7.75;;;;;;;15.17;32.99;101940.00;18432066;32;20092;-65
2022/03/17 07:45:55;;;;;;;16.20;7.15;;;;;;;14.80;32.37;101948.63;18430490;32;20365;-66
2022/03/17 07:55:59;;;;;;;13.02;6.18;;;;;;;12.91;34.56;101964.34;18430809;32;20112;-66
2022/03/17 08:06:03;;;;;;;14.18;6.05;;;;;;;13.92;34.21;101952.34;18428145;32;20104;-65
2022/03/17 08:16:09;;;;;;;14.25;6.50;;;;;;;12.74;36.85;101966.75;18429908;32;20084;-66
2022/03/17 08:26:19;;;;;;;11.80;5.23;;;;;;;11.65;40.13;101964.97;18428611;32;20106;-65
2022/03/17 08:36:22;;;;;;;11.27;5.32;;;;;;;12.43;37.92;101975.03;18428892;32;20092;-65
2022/03/17 08:56:48;;;;;;;13.05;6.50;;;;;;;11.11;41.57;101983.13;18436158;32;20112;-66
2022/03/17 09:06:54;;;;;;;13.05;5.82;;;;;;;10.98;42.51;101978.47;18437216;32;20085;-65
2022/03/17 09:16:57;;;;;;;12.68;6.18;;;;;;;11.58;42.39;101987.50;18436023;32;20349;-66
2022/03/17 09:27:02;;;;;;;13.05;6.28;;;;;;;11.69;40.79;101979.00;18436519;32;20097;-65
2022/03/17 09:37:05;;;;;;;12.30;5.57;;;;;;;13.13;39.44;101980.34;18434842;32;20171;-66
2022/03/17 09:47:11;;;;;;;14.57;7.60;;;;;;;15.59;33.60;101983.09;18434709;32;20443;-66
2022/03/17 09:57:16;;;;;;;14.48;7.97;;;;;;;16.65;31.08;101962.03;18435859;32;20124;-66
2022/03/17 10:07:21;;;;;;;15.43;8.32;;;;;;;18.04;29.46;101954.28;18433683;32;20536;-66
2022/03/17 10:17:31;;;;;;;17.95;9.25;;;;;;;15.92;31.69;101975.28;18434473;32;20481;-66
2022/03/17 10:27:41;;;;;;;17.55;8.40;;;;;;;14.71;32.89;101968.69;18433915;32;20116;-66
2022/03/17 10:37:46;;;;;;;15.23;6.78;;;;;;;14.29;33.99;101970.19;18433415;32;20361;-66
2022/03/17 10:47:50;;;;;;;13.02;6.85;;;;;;;14.73;31.91;101962.59;18433229;32;20086;-66
2022/03/17 10:57:58;;;;;;;17.77;8.05;;;;;;;14.25;33.33;101966.66;18432319;32;20168;-66
2022/03/17 11:08:03;;;;;;;17.50;7.62;;;;;;;13.72;34.15;101958.31;18432840;32;20089;-65
2022/03/17 11:18:07;;;;;;;13.93;6.97;;;;;;;14.59;33.30;101958.13;18411126;32;20132;-66
2022/03/17 11:28:12;;;;;;;18.10;7.60;;;;;;;14.71;32.51;101968.69;18398206;32;20124;-66
2022/03/17 11:38:17;;;;;;;14.52;6.68;;;;;;;13.56;34.92;101973.03;18396750;32;20177;-66
2022/03/17 11:48:21;;;;;;;12.95;5.78;;;;;;;14.04;32.84;101974.31;18382620;32;20112;-66
2022/03/17 11:58:32;;;;;;;13.35;6.30;;;;;;;13.44;34.42;101978.13;18383860;32;20516;-67
2022/03/17 12:08:38;;;;;;;14.30;6.47;;;;;;;13.11;34.36;101977.72;18367406;32;20147;-65
2022/03/17 12:19:03;;;;;;;11.60;5.75;;;;;;;13.41;33.37;101968.47;18365626;32;20093;-66
2022/03/17 12:29:09;;;;;;;16.70;6.03;;;;;;;13.64;32.52;101967.84;18378084;32;20178;-65
2022/03/17 12:39:12;;;;;;;14.07;6.50;;;;;;;14.26;32.54;101957.00;18408719;32;20097;-65
2022/03/17 12:49:19;;;;;;;10.52;5.75;;;;;;;13.72;32.53;101968.81;18411275;32;20516;-67
2022/03/17 12:59:22;;;;;;;15.02;6.40;;;;;;;12.90;34.26;101973.06;18417994;32;20085;-65
2022/03/17 13:09:30;;;;;;;16.05;4.97;;;;;;;13.56;33.04;101961.63;18405945;32;20382;-65
2022/03/17 13:19:44;;;;;;;13.60;5.40;;;;;;;14.18;32.11;101970.09;18400970;32;21840;-65
2022/03/17 13:29:55;;;;;;;14.00;5.87;;;;;;;13.41;31.50;101967.56;18421793;32;20382;-65
2022/03/17 13:40:01;;;;;;;13.33;5.30;;;;;;;13.82;32.51;101961.03;18430884;32;20089;-66
2022/03/17 13:50:20;;;;;;;13.98;6.10;;;;;;;13.43;32.37;101960.62;18381792;32;20129;-65
2022/03/17 14:00:24;;;;;;;12.10;5.60;;;;;;;13.22;33.07;101962.09;18369997;32;20098;-65
2022/03/17 14:10:29;;;;;;;14.80;5.78;;;;;;;13.55;33.58;101962.50;18369438;32;20370;-65
2022/03/17 14:20:32;;;;;;;12.15;5.20;;;;;;;12.92;32.75;101970.50;18367834;32;20129;-65
2022/03/17 14:30:37;;;;;;;15.88;5.72;;;;;;;13.30;32.93;101963.09;18372141;32;20407;-66
2022/03/17 14:40:40;;;;;;;13.70;5.80;;;;;;;12.73;34.29;101962.37;18406247;32;20141;-65
2022/03/17 14:50:45;;;;;;;12.25;5.07;;;;;;;13.06;33.60;101953.19;18419415;32;20097;-65
2022/03/17 15:00:48;;;;;;;18.45;7.40;;;;;;;13.02;33.67;101956.63;18430511;32;20140;-65
2022/03/17 15:10:53;;;;;;;12.10;5.78;;;;;;;12.37;34.63;101961.84;18430988;32;20133;-65
2022/03/17 15:20:57;;;;;;;13.32;6.55;;;;;;;12.57;35.80;101979.63;18429478;32;20449;-65
2022/03/17 15:31:02;;;;;;;11.05;5.60;;;;;;;12.90;35.20;101973.97;18402136;32;20093;-65
2022/03/17 15:41:05;;;;;;;12.70;5.78;;;;;;;12.65;36.33;101982.34;18373643;32;20100;-65
2022/03/17 15:51:10;;;;;;;16.02;7.03;;;;;;;12.68;37.17;101985.91;18366824;32;20096;-65
2022/03/17 16:01:15;;;;;;;12.13;5.22;;;;;;;12.20;39.27;102001.75;18365378;32;20168;-64
2022/03/17 16:21:42;;;;;;;12.25;5.12;;;;;;;12.70;38.96;102038.28;18366010;32;20080;-65
2022/03/17 16:31:46;;;;;;;13.18;4.82;;;;;;;12.33;40.35;102052.59;18365475;32;20696;-65
2022/03/17 16:41:50;;;;;;;11.77;5.25;;;;;;;12.06;41.90;102069.56;18364807;32;20112;-65
2022/03/17 16:51:55;;;;;;;11.77;6.10;;;;;;;12.05;42.50;102072.16;18363759;32;20101;-64
2022/03/17 17:01:58;;;;;;;11.25;5.47;;;;;;;11.90;42.79;102093.66;18363204;32;20113;-64
2022/03/17 17:12:03;;;;;;;13.60;6.18;;;;;;;11.43;44.08;102099.66;18371277;32;20096;-64
2022/03/17 17:22:07;;;;;;;14.07;6.07;;;;;;;11.36;43.97;102098.63;18425147;32;20097;-64
2022/03/17 17:32:15;;;;;;;9.50;5.20;;;;;;;11.06;44.69;102103.22;18435634;32;20147;-65
2022/03/17 17:42:19;;;;;;;10.45;5.37;;;;;;;10.58;45.92;102107.28;18391451;32;20104;-67
2022/03/17 17:52:23;;;;;;;11.15;4.60;;;;;;;10.25;45.77;102131.66;18394641;32;20179;-67
2022/03/17 18:02:26;;;;;;;15.50;5.12;;;;;;;9.57;48.08;102139.31;18394262;32;20109;-67
2022/03/17 18:12:31;;;;;;;10.63;4.82;;;;;;;9.07;49.35;102146.44;18381742;32;20103;-67
2022/03/17 18:22:35;;;;;;;9.38;4.70;;;;;;;8.72;50.04;102168.75;18366316;32;20100;-67
2022/03/17 18:32:39;;;;;;;11.63;4.82;;;;;;;8.68;49.53;102185.13;18368164;32;20113;-66
2022/03/17 18:42:43;;;;;;;18.60;7.78;;;;;;;8.21;51.62;102206.03;18373781;32;20434;-67
2022/03/17 18:52:47;;;;;;;14.23;6.60;;;;;;;7.73;52.72;102209.41;18414125;32;20097;-67
2022/03/17 19:03:02;;;;;;;14.02;6.15;;;;;;;7.41;53.43;102227.25;18397652;32;20097;-67
2022/03/17 19:13:06;;;;;;;12.43;6.37;;;;;;;7.48;52.52;102224.03;18404386;32;20150;-67
2022/03/17 19:23:10;;;;;;;15.90;7.80;;;;;;;7.15;53.58;102229.66;18397046;32;20097;-67
2022/03/17 19:33:14;;;;;;;16.10;7.55;;;;;;;6.88;55.10;102251.03;18368488;32;20112;-67
2022/03/17 19:43:18;;;;;;;13.35;6.07;;;;;;;6.70;55.92;102257.19;18367934;32;20136;-66
2022/03/17 19:53:23;;;;;;;11.48;6.22;;;;;;;6.51;55.46;102269.34;18373019;32;20100;-66
2022/03/17 20:03:26;;;;;;;14.15;4.97;;;;;;;6.14;56.72;102285.84;18393816;32;20108;-67
2022/03/17 20:13:44;;;;;;;13.77;5.10;;;;;;;6.02;56.84;102288.72;18395980;32;20115;-67
2022/03/17 20:23:49;;;;;;;11.07;5.50;;;;;;;5.74;58.26;102284.81;18397224;32;20178;-66
2022/03/17 20:34:02;;;;;;;;;;;;;;;5.46;58.51;102309.38;18399590;32;20123;-67
2022/03/17 20:44:05;;;;;;;6.75;4.18;;;;;;;5.35;59.27;102326.97;18380914;32;20379;-66
2022/03/17 20:54:10;;;;;;;3.80;2.62;;;;;;;5.48;57.26;102328.47;18398325;32;20203;-66
2022/03/17 21:04:13;;;;;;;10.55;5.62;;;;;;;4.79;59.50;102329.31;18372412;32;20413;-66
2022/03/17 21:14:18;;;;;;;8.27;4.75;;;;;;;4.72;60.17;102332.38;18372239;32;20116;-66
2022/03/17 21:24:21;;;;;;;11.80;6.53;;;;;;;4.59;60.29;102346.34;18371716;32;20174;-66
2022/03/17 21:34:26;;;;;;;4.55;3.60;;;;;;;4.47;61.14;102343.09;18371575;32;20101;-66
2022/03/17 21:44:29;;;;;;;6.53;4.07;;;;;;;4.25;60.52;102349.69;18370347;32;20147;-66
2022/03/17 21:54:34;;;;;;;7.90;3.78;;;;;;;4.22;61.98;102353.00;18369286;32;20116;-66
2022/03/17 22:04:37;;;;;;;6.18;3.70;;;;;;;3.97;62.50;102364.53;18391672;32;20123;-66
2022/03/17 22:14:42;;;;;;;10.38;4.05;;;;;;;3.80;62.89;102373.91;18396097;32;20097;-66
2022/03/17 22:24:45;;;;;;;7.00;2.97;;;;;;;3.74;61.88;102384.78;18394270;32;20108;-66
2022/03/17 22:34:50;;;;;;;10.13;5.45;;;;;;;3.69;62.28;102398.25;18395938;32;20094;-66
2022/03/17 22:44:53;;;;;;;10.45;6.72;;;;;;;3.54;63.23;102400.81;18398985;32;20107;-66
2022/03/17 22:54:59;;;;;;;19.25;8.05;;;;;;;3.65;62.78;102425.59;18395456;32;20150;-66
2022/03/17 23:05:02;;;;;;;18.05;6.90;;;;;;;3.22;64.22;102421.31;18377708;32;20090;-66
2022/03/17 23:15:09;;;;;;;10.82;4.45;;;;;;;3.25;63.56;102420.63;18367818;32;20112;-66
2022/03/17 23:25:13;;;;;;;9.55;6.32;;;;;;;2.84;64.09;102413.00;18394858;32;20089;-66
2022/03/17 23:35:17;;;;;;;9.10;6.18;;;;;;;2.46;65.19;102426.97;18392427;32;20097;-65
2022/03/17 23:45:21;;;;;;;10.57;6.35;;;;;;;2.33;64.29;102428.75;18367688;32;20184;-65
2022/03/17 23:55:27;;;;;;;8.43;4.32;;;;;;;2.30;63.97;102435.41;18367204;32;20468;-66
